Time;durP1;ratioP1;P1;durP2;ratioP2;P2;SDS_P1;SDS_P2;PMS_P1;PMS_P2;Temp;Humidity;BMP_temperature;BMP_pressure;BME280_temperature;BME280_humidity;BME280_pressure;Samples;Min_cycle;Max_cycle;Signal;HPM_P1;HPM_P2
2022/10/02 00:01:18;;;;;;;18.85;4.55;;;14.10;99.90;;;;;;5048682;28;20443;-78
2022/10/02 00:03:46;;;;;;;19.60;3.97;;;14.10;99.90;;;;;;5039128;28;20505;-78
2022/10/02 00:06:18;;;;;;;19.48;4.00;;;14.10;99.90;;;;;;5030022;28;20042;-78
2022/10/02 00:08:46;;;;;;;22.00;4.68;;;14.10;99.90;;;;;;5040197;28;20048;-78
2022/10/02 00:11:18;;;;;;;19.25;3.95;;;14.10;99.90;;;;;;5039847;28;20056;-78
2022/10/02 00:13:48;;;;;;;15.77;3.92;;;14.00;99.90;;;;;;5029566;28;20042;-78
2022/10/02 00:16:23;;;;;;;18.27;4.35;;;14.10;99.90;;;;;;5030330;28;20063;-78
2022/10/02 00:18:50;;;;;;;27.95;4.35;;;14.10;99.90;;;;;;5039787;28;20048;-78
2022/10/02 00:21:38;;;;;;;17.27;3.90;;;14.10;99.90;;;;;;5040260;28;20688;-78
2022/10/02 00:24:07;;;;;;;16.42;3.58;;;14.10;99.90;;;;;;5015290;28;20042;-78
2022/10/02 00:26:38;;;;;;;22.25;4.25;;;14.10;99.90;;;;;;5033165;28;20440;-78
2022/10/02 00:29:14;;;;;;;23.33;4.28;;;14.10;99.90;;;;;;5039883;28;20122;-78
2022/10/02 00:31:50;;;;;;;25.90;4.13;;;14.10;99.90;;;;;;5048443;28;20056;-78
2022/10/02 00:34:25;;;;;;;20.27;3.80;;;14.10;99.90;;;;;;5037552;28;20108;-78
2022/10/02 00:37:00;;;;;;;26.52;4.30;;;14.10;99.90;;;;;;5041890;28;20068;-78
2022/10/02 00:39:39;;;;;;;25.25;4.18;;;14.10;99.90;;;;;;5034074;28;20037;-78
2022/10/02 00:42:49;;;;;;;27.33;4.22;;;14.10;99.90;;;;;;5036794;28;20135;-78
2022/10/02 00:45:41;;;;;;;19.40;4.55;;;14.10;99.90;;;;;;5040368;28;20048;-78
2022/10/02 00:48:20;;;;;;;19.25;4.25;;;14.10;99.90;;;;;;5041529;28;20053;-78
2022/10/02 00:50:53;;;;;;;28.58;4.60;;;14.10;99.90;;;;;;5052196;28;20405;-78
2022/10/02 00:53:27;;;;;;;19.80;4.15;;;14.10;99.90;;;;;;5014203;28;20449;-78
2022/10/02 00:56:07;;;;;;;26.65;4.53;;;14.20;99.90;;;;;;5031137;28;20418;-78
2022/10/02 00:58:48;;;;;;;18.23;4.93;;;14.20;99.90;;;;;;5033784;28;20064;-78
2022/10/02 01:01:19;;;;;;;18.92;3.88;;;14.20;99.90;;;;;;5039926;28;20052;-78
2022/10/02 01:03:52;;;;;;;20.00;4.30;;;14.20;99.90;;;;;;5031661;28;20045;-78
2022/10/02 01:06:19;;;;;;;17.20;3.30;;;14.20;99.90;;;;;;5033817;28;20041;-78
2022/10/02 01:08:46;;;;;;;23.75;3.72;;;14.20;99.90;;;;;;5041974;28;20037;-78
2022/10/02 01:11:13;;;;;;;24.70;4.22;;;14.20;99.90;;;;;;5040345;28;20383;-79
2022/10/02 01:13:40;;;;;;;20.20;3.95;;;14.20;99.90;;;;;;5031849;28;20102;-78
2022/10/02 01:16:09;;;;;;;20.17;4.22;;;14.20;99.90;;;;;;5032178;28;20481;-78
2022/10/02 01:18:36;;;;;;;16.77;3.78;;;14.10;99.90;;;;;;5043293;28;20041;-78
2022/10/02 01:21:18;;;;;;;25.67;4.53;;;14.10;99.90;;;;;;5041389;28;20050;-78
2022/10/02 01:23:48;;;;;;;21.55;3.90;;;14.10;99.90;;;;;;5036180;28;20045;-78
2022/10/02 01:26:17;;;;;;;22.87;4.67;;;14.20;99.90;;;;;;5032740;28;20053;-78
2022/10/02 01:28:44;;;;;;;23.08;3.92;;;14.20;99.90;;;;;;5043107;28;20048;-78
2022/10/02 01:31:13;;;;;;;22.70;3.97;;;14.20;99.90;;;;;;5034861;28;20049;-78
2022/10/02 01:33:41;;;;;;;27.00;4.75;;;14.20;99.90;;;;;;5051273;28;20133;-78
2022/10/02 01:36:08;;;;;;;19.88;4.00;;;14.20;99.90;;;;;;5039814;28;20049;-78
2022/10/02 01:38:37;;;;;;;24.58;4.10;;;14.20;99.90;;;;;;5042851;28;20044;-78
2022/10/02 01:41:06;;;;;;;23.63;4.18;;;14.20;99.90;;;;;;5039901;28;20049;-78
2022/10/02 01:43:35;;;;;;;23.52;5.13;;;14.30;99.90;;;;;;5031000;28;20637;-78
2022/10/02 01:46:11;;;;;;;24.30;4.15;;;14.30;99.90;;;;;;5031108;28;20049;-78
2022/10/02 01:48:45;;;;;;;32.95;4.93;;;14.30;99.90;;;;;;5042780;28;20040;-77
2022/10/02 01:51:49;;;;;;;28.95;4.72;;;14.30;99.90;;;;;;5039710;28;20057;-78
2022/10/02 01:54:24;;;;;;;24.00;5.18;;;14.40;99.90;;;;;;5031788;28;20064;-78
2022/10/02 01:56:56;;;;;;;29.52;4.63;;;14.40;99.90;;;;;;5040827;28;20033;-78
2022/10/02 01:59:35;;;;;;;29.65;5.45;;;14.40;99.90;;;;;;5039134;28;20045;-78
2022/10/02 02:02:10;;;;;;;24.77;4.13;;;14.60;99.90;;;;;;5043579;28;20049;-78
2022/10/02 02:04:42;;;;;;;27.42;4.53;;;14.50;99.90;;;;;;5041428;28;20041;-79
2022/10/02 02:07:13;;;;;;;35.10;5.35;;;14.50;99.90;;;;;;5042313;28;20513;-78
2022/10/02 02:09:45;;;;;;;28.08;5.03;;;14.70;99.90;;;;;;5039860;28;20044;-78
2022/10/02 02:12:14;;;;;;;27.23;5.53;;;14.50;99.90;;;;;;5040568;28;20049;-78
2022/10/02 02:14:47;;;;;;;33.13;4.88;;;14.50;99.90;;;;;;5030013;28;20041;-78
2022/10/02 02:17:17;;;;;;;26.92;5.47;;;14.60;99.90;;;;;;5033406;28;20060;-78
2022/10/02 02:19:46;;;;;;;21.13;4.03;;;14.60;99.90;;;;;;5041274;28;20048;-78
2022/10/02 02:22:18;;;;;;;31.85;5.22;;;14.60;99.90;;;;;;5040476;28;20045;-78
2022/10/02 02:24:51;;;;;;;24.02;5.03;;;14.60;99.90;;;;;;5020370;28;20061;-78
2022/10/02 02:27:21;;;;;;;24.55;4.75;;;14.60;99.90;;;;;;5038609;28;20040;-78
2022/10/02 02:29:52;;;;;;;28.10;5.00;;;14.50;99.90;;;;;;5034683;28;20052;-78
2022/10/02 02:32:20;;;;;;;;;;;14.60;99.90;;;;;;5030463;28;20049;-78
2022/10/02 02:34:50;;;;;;;23.48;4.25;;;14.50;99.90;;;;;;5029730;28;19932;-78
2022/10/02 02:37:20;;;;;;;26.23;5.03;;;14.60;99.90;;;;;;5036090;28;20040;-78
2022/10/02 02:39:50;;;;;;;28.52;5.10;;;14.60;99.90;;;;;;5034657;28;20045;-77
2022/10/02 02:42:20;;;;;;;25.27;4.47;;;14.60;99.90;;;;;;5032171;28;20520;-78
2022/10/02 02:44:52;;;;;;;28.17;4.82;;;14.60;99.90;;;;;;5035839;28;20068;-78
2022/10/02 02:47:22;;;;;;;26.27;4.45;;;14.60;99.90;;;;;;5022863;28;20052;-78
2022/10/02 02:49:52;;;;;;;21.40;5.30;;;14.60;99.90;;;;;;5034192;28;20053;-77
2022/10/02 02:52:22;;;;;;;25.67;4.22;;;14.60;99.90;;;;;;5029818;28;20045;-78
2022/10/02 02:54:52;;;;;;;30.42;4.60;;;14.60;99.90;;;;;;5029482;28;20544;-78
2022/10/02 02:57:23;;;;;;;28.25;5.07;;;14.60;99.90;;;;;;5038504;28;20356;-78
2022/10/02 02:59:53;;;;;;;23.30;4.30;;;14.60;99.90;;;;;;5033594;28;20045;-78
2022/10/02 03:02:20;;;;;;;32.95;5.57;;;14.60;99.90;;;;;;5024835;28;20041;-77
2022/10/02 03:04:47;;;;;;;27.55;4.43;;;14.60;99.90;;;;;;5017815;28;20048;-78
2022/10/02 03:07:16;;;;;;;26.25;4.38;;;14.60;99.90;;;;;;5031883;28;20056;-78
2022/10/02 03:09:47;;;;;;;33.13;5.47;;;14.60;99.90;;;;;;5034223;28;20104;-78
2022/10/02 03:12:21;;;;;;;27.98;4.93;;;14.60;99.90;;;;;;5036990;28;20052;-78
2022/10/02 03:15:01;;;;;;;35.53;5.47;;;14.60;99.90;;;;;;5035088;28;20068;-78
2022/10/02 03:17:35;;;;;;;30.67;5.00;;;14.60;99.90;;;;;;5036840;28;20045;-77
2022/10/02 03:20:10;;;;;;;38.22;6.20;;;14.60;99.90;;;;;;5035799;28;20049;-77
2022/10/02 03:22:42;;;;;;;31.67;4.72;;;14.70;99.90;;;;;;5029363;28;20079;-78
2022/10/02 03:25:13;;;;;;;28.27;4.97;;;14.60;99.90;;;;;;5028824;28;20506;-78
2022/10/02 03:27:44;;;;;;;28.02;5.15;;;14.60;99.90;;;;;;5036654;28;20042;-77
2022/10/02 03:30:13;;;;;;;28.95;5.55;;;14.70;99.90;;;;;;5036597;28;20581;-78
2022/10/02 03:32:42;;;;;;;35.63;5.65;;;14.60;99.90;;;;;;5029190;28;20052;-78
2022/10/02 03:35:10;;;;;;;30.33;5.50;;;14.60;99.90;;;;;;5029735;28;20139;-78
2022/10/02 03:37:39;;;;;;;27.52;5.00;;;14.60;99.90;;;;;;5040415;28;20103;-78
2022/10/02 03:40:07;;;;;;;32.83;5.63;;;14.60;99.90;;;;;;5028984;28;20053;-77
2022/10/02 03:42:35;;;;;;;26.35;5.32;;;14.70;99.90;;;;;;5029086;28;20525;-78
2022/10/02 03:45:07;;;;;;;30.25;5.10;;;14.70;99.90;;;;;;5028556;28;20132;-78
2022/10/02 03:47:35;;;;;;;26.33;4.82;;;14.60;99.90;;;;;;5036586;28;20037;-77
2022/10/02 03:50:02;;;;;;;30.67;4.38;;;14.70;99.90;;;;;;5029264;28;20405;-78
2022/10/02 03:52:31;;;;;;;34.75;6.15;;;14.70;99.90;;;;;;5028978;28;20052;-78
2022/10/02 03:55:03;;;;;;;31.17;5.38;;;14.70;99.90;;;;;;5027850;28;20048;-78
2022/10/02 03:57:32;;;;;;;32.78;5.32;;;14.70;99.90;;;;;;5036461;28;20573;-78
2022/10/02 04:00:02;;;;;;;26.25;5.20;;;14.70;99.90;;;;;;5029820;28;20124;-78
2022/10/02 04:02:37;;;;;;;29.67;5.07;;;14.70;99.90;;;;;;5027789;28;20081;-78
2022/10/02 04:05:12;;;;;;;33.80;5.63;;;14.80;99.90;;;;;;5028510;28;20506;-78
2022/10/02 04:07:40;;;;;;;29.23;5.65;;;14.80;99.90;;;;;;5035754;28;20115;-77
2022/10/02 04:10:17;;;;;;;29.23;5.05;;;14.80;99.90;;;;;;5031833;28;20053;-78
2022/10/02 04:12:46;;;;;;;29.63;5.53;;;14.80;99.90;;;;;;5028855;28;20045;-78
2022/10/02 04:15:25;;;;;;;28.08;4.85;;;14.80;99.90;;;;;;5028163;28;20046;-78
2022/10/02 04:17:57;;;;;;;35.38;6.00;;;14.80;99.90;;;;;;5027060;28;20445;-78
2022/10/02 04:20:30;;;;;;;35.13;5.60;;;14.90;99.90;;;;;;5030763;28;20091;-78
2022/10/02 04:22:59;;;;;;;31.90;4.90;;;14.90;99.90;;;;;;5032000;28;20132;-78
2022/10/02 04:25:42;;;;;;;23.85;4.30;;;14.90;99.90;;;;;;5033193;28;20042;-77
2022/10/02 04:28:12;;;;;;;37.47;5.93;;;14.90;99.90;;;;;;5031909;28;20048;-78
2022/10/02 04:30:39;;;;;;;26.13;4.65;;;14.90;99.90;;;;;;5040530;28;20076;-78
2022/10/02 04:33:32;;;;;;;25.15;4.82;;;14.90;99.90;;;;;;5032444;28;20049;-78
2022/10/02 04:36:07;;;;;;;23.98;4.13;;;14.90;99.90;;;;;;5027144;28;20049;-78
2022/10/02 04:39:02;;;;;;;21.33;3.65;;;14.90;99.90;;;;;;5037099;28;20037;-78
2022/10/02 04:41:39;;;;;;;26.67;4.05;;;14.90;99.90;;;;;;5028519;28;20092;-78
2022/10/02 04:44:20;;;;;;;20.52;4.00;;;14.90;99.90;;;;;;5014213;28;20454;-78
2022/10/02 04:47:10;;;;;;;21.05;3.60;;;14.90;99.90;;;;;;5040152;28;20057;-78
2022/10/02 04:49:50;;;;;;;20.67;4.25;;;14.90;99.90;;;;;;5040047;28;20418;-78
2022/10/02 04:52:54;;;;;;;20.75;4.32;;;15.00;99.90;;;;;;5051712;28;20041;-78
2022/10/02 04:55:33;;;;;;;19.58;3.30;;;15.00;99.90;;;;;;5031302;28;20041;-78
2022/10/02 04:58:30;;;;;;;17.52;3.80;;;15.00;99.90;;;;;;5028669;28;20050;-78
2022/10/02 05:01:04;;;;;;;17.08;3.58;;;15.00;99.90;;;;;;5043463;28;20051;-78
2022/10/02 05:03:45;;;;;;;17.67;3.45;;;15.00;99.90;;;;;;5036185;28;20684;-78
2022/10/02 05:06:31;;;;;;;16.05;3.20;;;15.00;99.90;;;;;;5030760;28;20037;-78
2022/10/02 05:09:03;;;;;;;19.90;4.10;;;15.00;99.90;;;;;;5039308;28;20051;-78
2022/10/02 05:11:43;;;;;;;22.33;3.30;;;15.00;99.90;;;;;;5044717;28;20071;-78
2022/10/02 05:14:33;;;;;;;20.85;3.58;;;15.00;99.90;;;;;;5041819;28;20053;-78
2022/10/02 05:17:11;;;;;;;13.98;3.33;;;15.00;99.90;;;;;;5044497;28;20488;-78
2022/10/02 05:19:47;;;;;;;15.75;3.17;;;15.00;99.90;;;;;;5038510;28;20045;-78
2022/10/02 05:22:44;;;;;;;23.17;4.30;;;15.00;99.90;;;;;;5049968;28;20543;-78
2022/10/02 05:25:21;;;;;;;15.32;3.65;;;14.90;99.90;;;;;;5026277;28;20049;-78
2022/10/02 05:28:01;;;;;;;17.25;3.42;;;14.90;99.90;;;;;;5030797;28;20100;-78
2022/10/02 05:30:34;;;;;;;15.50;3.38;;;14.90;99.90;;;;;;5032444;28;20521;-78
2022/10/02 05:33:19;;;;;;;12.73;3.38;;;14.90;99.90;;;;;;5031376;28;20140;-78
2022/10/02 05:36:06;;;;;;;13.77;2.97;;;14.90;99.90;;;;;;5030826;28;20030;-82
2022/10/02 05:39:02;;;;;;;17.15;3.53;;;14.90;99.90;;;;;;5035751;28;20037;-76
2022/10/02 05:41:35;;;;;;;11.32;3.22;;;14.90;99.90;;;;;;5032483;28;20065;-77
2022/10/02 05:44:07;;;;;;;13.98;3.28;;;14.90;99.90;;;;;;5030738;28;20042;-77
2022/10/02 05:46:40;;;;;;;14.18;3.50;;;14.90;99.90;;;;;;5030892;28;20045;-76
2022/10/02 05:49:12;;;;;;;14.48;3.00;;;14.90;99.90;;;;;;5039320;28;20048;-78
2022/10/02 05:51:43;;;;;;;11.88;3.50;;;14.90;99.90;;;;;;5035163;28;20139;-78
2022/10/02 05:54:14;;;;;;;;;;;14.90;99.90;;;;;;5030955;28;20129;-77
2022/10/02 05:56:46;;;;;;;12.95;3.35;;;15.00;99.90;;;;;;5013232;28;19932;-77
2022/10/02 05:59:17;;;;;;;13.05;3.50;;;14.90;99.90;;;;;;5036607;28;20045;-77
2022/10/02 06:01:46;;;;;;;10.40;3.00;;;15.00;99.90;;;;;;5035190;28;20572;-77
2022/10/02 06:04:15;;;;;;;13.45;3.00;;;15.00;99.90;;;;;;5025557;28;20045;-77
2022/10/02 06:06:46;;;;;;;16.05;3.55;;;15.00;99.90;;;;;;5030209;28;20037;-77
2022/10/02 06:09:17;;;;;;;14.43;3.33;;;15.00;99.90;;;;;;5047244;28;20064;-77
2022/10/02 06:11:45;;;;;;;;;;;15.00;99.90;;;;;;5023132;28;20053;-77
2022/10/02 06:14:16;;;;;;;16.15;3.33;;;15.00;99.90;;;;;;5023210;28;19940;-77
2022/10/02 06:16:46;;;;;;;12.23;3.15;;;15.00;99.90;;;;;;5028927;28;20045;-77
2022/10/02 06:19:16;;;;;;;11.30;3.42;;;15.00;99.90;;;;;;5033716;28;20123;-77
2022/10/02 06:21:47;;;;;;;12.02;3.38;;;15.00;99.90;;;;;;5030342;28;20592;-77
2022/10/02 06:24:20;;;;;;;13.35;3.95;;;15.00;99.90;;;;;;5030510;28;20050;-78
2022/10/02 06:26:50;;;;;;;17.95;4.35;;;15.00;99.90;;;;;;5027858;28;20041;-78
2022/10/02 06:29:21;;;;;;;18.33;4.25;;;15.00;99.90;;;;;;5019086;28;20056;-78
2022/10/02 06:31:52;;;;;;;14.55;4.70;;;15.00;99.90;;;;;;5041415;28;20041;-78
2022/10/02 06:34:19;;;;;;;14.00;4.20;;;15.10;99.90;;;;;;5028557;28;20045;-77
2022/10/02 06:37:03;;;;;;;13.05;3.85;;;15.10;99.90;;;;;;5028438;28;20045;-78
2022/10/02 06:39:42;;;;;;;19.63;4.43;;;15.10;99.90;;;;;;5034908;28;20049;-78
2022/10/02 06:42:16;;;;;;;16.52;4.40;;;15.20;99.90;;;;;;5031341;28;20057;-78
2022/10/02 06:44:50;;;;;;;20.45;5.05;;;15.10;99.90;;;;;;5029770;28;20128;-78
2022/10/02 06:47:26;;;;;;;22.98;5.55;;;15.10;99.90;;;;;;5036965;28;20056;-77
2022/10/02 06:50:16;;;;;;;24.00;5.30;;;15.20;99.90;;;;;;5046266;28;20059;-78
2022/10/02 06:52:48;;;;;;;21.05;5.50;;;15.20;99.90;;;;;;5024720;28;20490;-77
2022/10/02 06:55:31;;;;;;;21.52;6.82;;;15.20;99.90;;;;;;5035185;28;20129;-78
2022/10/02 06:58:28;;;;;;;18.55;6.28;;;15.20;99.90;;;;;;5025644;28;20049;-80
2022/10/02 07:01:01;;;;;;;18.05;7.03;;;15.20;99.90;;;;;;5025028;28;20065;-77
2022/10/02 07:03:48;;;;;;;20.13;6.32;;;15.20;99.90;;;;;;5029241;28;20422;-77
2022/10/02 07:06:33;;;;;;;20.60;7.57;;;15.30;99.90;;;;;;5028706;28;20056;-77
2022/10/02 07:09:21;;;;;;;26.67;7.90;;;15.30;99.90;;;;;;5041088;28;20044;-77
2022/10/02 07:11:54;;;;;;;19.95;7.43;;;15.30;99.90;;;;;;5037620;28;20059;-83
2022/10/02 07:14:30;;;;;;;19.02;7.10;;;15.30;99.90;;;;;;5029360;28;20052;-76
2022/10/02 07:17:23;;;;;;;21.05;6.43;;;15.30;99.90;;;;;;5025938;28;20046;-74
2022/10/02 07:20:12;;;;;;;21.45;7.35;;;15.30;99.90;;;;;;5022233;28;20067;-76
2022/10/02 07:22:55;;;;;;;20.17;6.90;;;15.30;99.90;;;;;;5034342;28;20409;-77
2022/10/02 07:25:57;;;;;;;19.60;7.03;;;15.40;99.90;;;;;;5009668;28;20042;-78
2022/10/02 07:28:30;;;;;;;21.85;7.13;;;15.40;99.90;;;;;;5017395;28;20057;-78
2022/10/02 07:31:02;;;;;;;21.30;6.72;;;15.40;99.90;;;;;;5028502;28;20052;-79
2022/10/02 07:33:41;;;;;;;22.10;7.22;;;15.50;99.90;;;;;;5028686;28;20037;-76
2022/10/02 07:36:12;;;;;;;17.60;6.15;;;15.50;99.90;;;;;;5029948;28;20029;-78
2022/10/02 07:38:54;;;;;;;25.70;7.03;;;15.50;99.90;;;;;;5032082;28;20148;-79
2022/10/02 07:41:33;;;;;;;17.73;6.15;;;15.50;99.90;;;;;;5028604;28;20143;-77
2022/10/02 07:44:13;;;;;;;23.05;6.25;;;15.60;99.90;;;;;;5026979;28;20049;-77
2022/10/02 07:46:48;;;;;;;30.38;7.47;;;15.60;99.90;;;;;;5035893;28;20641;-78
2022/10/02 07:49:26;;;;;;;17.40;6.20;;;15.60;99.90;;;;;;5029102;28;20037;-78
2022/10/02 07:52:00;;;;;;;26.55;7.07;;;15.60;99.90;;;;;;5025609;28;20060;-78
2022/10/02 07:54:48;;;;;;;22.30;6.25;;;15.70;99.90;;;;;;5026083;28;20056;-80
2022/10/02 07:57:26;;;;;;;21.15;7.13;;;15.70;99.90;;;;;;5037117;28;20132;-80
2022/10/02 07:59:59;;;;;;;18.15;6.95;;;15.70;99.90;;;;;;5026474;28;20045;-79
2022/10/02 08:02:30;;;;;;;20.73;7.53;;;15.70;99.90;;;;;;5028640;28;20476;-80
2022/10/02 08:04:57;;;;;;;;;;;15.70;99.90;;;;;;5035897;28;20045;-78
2022/10/02 08:07:25;;;;;;;22.17;6.93;;;15.80;99.90;;;;;;5041097;28;19955;-78
2022/10/02 08:09:53;;;;;;;16.98;5.45;;;15.80;99.90;;;;;;5047723;28;20668;-77
2022/10/02 08:12:27;;;;;;;16.50;5.57;;;15.80;99.90;;;;;;5010394;28;20048;-78
2022/10/02 08:14:55;;;;;;;25.10;7.20;;;15.80;99.90;;;;;;5035573;28;20124;-77
2022/10/02 08:17:29;;;;;;;17.80;6.03;;;15.80;99.90;;;;;;5033286;28;20107;-79
2022/10/02 08:20:02;;;;;;;19.65;6.63;;;15.80;99.90;;;;;;5029728;28;20041;-81
2022/10/02 08:22:33;;;;;;;17.33;6.50;;;15.80;99.90;;;;;;5027419;28;20053;-77
2022/10/02 08:25:04;;;;;;;18.98;6.05;;;15.80;99.90;;;;;;5035301;28;20558;-77
2022/10/02 08:27:34;;;;;;;;;;;15.80;99.90;;;;;;5039194;28;20069;-77
2022/10/02 08:30:05;;;;;;;21.98;8.02;;;15.80;99.90;;;;;;5030365;28;19975;-77
2022/10/02 08:32:35;;;;;;;27.23;7.85;;;15.80;99.90;;;;;;5027922;28;20034;-78
2022/10/02 08:35:02;;;;;;;24.48;8.00;;;15.90;99.90;;;;;;5040867;28;20041;-78
2022/10/02 08:37:32;;;;;;;19.55;7.80;;;15.90;99.90;;;;;;5041521;28;20535;-80
2022/10/02 08:40:32;;;;;;;23.00;8.65;;;15.90;99.90;;;;;;5048483;28;20052;-78
2022/10/02 08:43:22;;;;;;;22.77;7.93;;;16.00;99.90;;;;;;5025325;22;20459;-79
2022/10/02 08:46:06;;;;;;;22.67;8.43;;;16.00;99.90;;;;;;4991073;28;20129;-78
2022/10/02 08:49:12;;;;;;;20.73;7.63;;;16.10;99.90;;;;;;4972812;28;20557;-78
2022/10/02 08:52:13;;;;;;;20.30;8.15;;;16.20;99.90;;;;;;4996945;28;20530;-79
2022/10/02 08:55:13;;;;;;;24.55;8.02;;;16.20;99.90;;;;;;4987886;28;20054;-78
2022/10/02 08:58:09;;;;;;;20.20;8.40;;;16.20;99.90;;;;;;4984393;28;20060;-78
2022/10/02 09:00:45;;;;;;;22.52;8.15;;;16.20;99.90;;;;;;5008761;28;20057;-77
2022/10/02 09:03:59;;;;;;;25.88;8.75;;;16.20;99.90;;;;;;5007579;28;20160;-77
2022/10/02 09:07:04;;;;;;;19.50;8.15;;;16.20;99.90;;;;;;4975538;28;20054;-77
2022/10/02 09:10:13;;;;;;;24.60;8.80;;;16.20;99.90;;;;;;4951290;28;20512;-77
2022/10/02 09:13:06;;;;;;;22.45;8.73;;;16.20;99.90;;;;;;4977555;28;20061;-77
2022/10/02 09:15:44;;;;;;;24.52;10.07;;;16.20;99.90;;;;;;4981179;28;20050;-77
2022/10/02 09:18:27;;;;;;;27.05;9.43;;;16.20;99.90;;;;;;4973140;28;20047;-77
2022/10/02 09:21:16;;;;;;;18.48;8.75;;;16.20;99.90;;;;;;4987055;28;20557;-77
2022/10/02 09:24:28;;;;;;;24.25;8.52;;;16.20;99.90;;;;;;4986635;28;20056;-77
2022/10/02 09:27:23;;;;;;;16.75;8.20;;;16.20;99.90;;;;;;4980177;28;20800;-77
2022/10/02 09:30:21;;;;;;;23.83;8.75;;;16.30;99.90;;;;;;4975011;28;20042;-77
2022/10/02 09:33:27;;;;;;;18.05;7.65;;;16.30;99.90;;;;;;4984268;28;20051;-77
2022/10/02 09:36:34;;;;;;;20.63;7.70;;;16.30;99.90;;;;;;4963129;28;20531;-77
2022/10/02 09:39:33;;;;;;;20.13;7.57;;;16.30;99.90;;;;;;4950257;28;20061;-77
2022/10/02 09:42:38;;;;;;;24.08;7.53;;;16.30;99.90;;;;;;4946543;29;20047;-77
2022/10/02 09:45:42;;;;;;;19.42;7.43;;;16.40;99.90;;;;;;4983648;28;20149;-77
2022/10/02 09:48:41;;;;;;;18.35;6.68;;;16.40;99.90;;;;;;4981490;28;20054;-77
2022/10/02 09:51:41;;;;;;;13.70;5.50;;;16.30;99.90;;;;;;4979951;28;20452;-77
2022/10/02 09:54:38;;;;;;;18.58;6.88;;;16.30;99.90;;;;;;4980728;28;20125;-77
2022/10/02 09:57:42;;;;;;;14.00;6.30;;;16.30;99.90;;;;;;4973948;28;20057;-77
2022/10/02 10:00:16;;;;;;;17.58;7.07;;;16.40;99.90;;;;;;4987538;28;20038;-77
2022/10/02 10:03:38;;;;;;;15.13;5.95;;;16.30;99.90;;;;;;4972989;28;20042;-77
2022/10/02 10:06:46;;;;;;;17.67;5.72;;;16.40;99.90;;;;;;4942612;28;20055;-77
2022/10/02 10:09:41;;;;;;;15.00;5.95;;;16.40;99.90;;;;;;4941750;28;20059;-77
2022/10/02 10:12:51;;;;;;;15.68;6.30;;;16.40;99.90;;;;;;4973818;28;20676;-77
2022/10/02 10:16:10;;;;;;;13.00;5.55;;;16.40;99.90;;;;;;4971987;28;20054;-77
2022/10/02 10:18:55;;;;;;;12.60;5.00;;;16.50;99.90;;;;;;4985839;28;20061;-77
2022/10/02 10:21:59;;;;;;;15.18;5.38;;;16.50;99.90;;;;;;4977290;28;20388;-77
2022/10/02 10:25:00;;;;;;;11.30;5.03;;;16.60;99.90;;;;;;4977843;28;20050;-77
2022/10/02 10:28:03;;;;;;;11.98;4.65;;;16.60;99.90;;;;;;4953041;28;20066;-77
2022/10/02 10:30:56;;;;;;;11.98;4.38;;;16.60;99.90;;;;;;4973928;28;20149;-77
2022/10/02 10:34:01;;;;;;;16.02;4.78;;;16.60;99.90;;;;;;4984446;28;20073;-77
2022/10/02 10:40:24;;;;;;;13.73;4.78;;;16.60;99.90;;;;;;4976021;28;20046;-77
2022/10/02 10:43:22;;;;;;;13.20;4.65;;;16.60;99.90;;;;;;4981173;28;20498;-77
2022/10/02 10:46:15;;;;;;;15.82;4.82;;;16.70;99.90;;;;;;4983022;28;20043;-77
2022/10/02 10:49:25;;;;;;;13.02;5.22;;;16.70;99.90;;;;;;4970152;28;20134;-77
2022/10/02 10:51:58;;;;;;;13.10;4.80;;;16.80;99.90;;;;;;4988683;28;20477;-77
2022/10/02 10:55:03;;;;;;;15.73;5.55;;;16.80;99.90;;;;;;4974751;28;20496;-77
2022/10/02 11:00:44;;;;;;;12.57;4.50;;;16.90;99.90;;;;;;4986450;28;20058;-78
2022/10/02 11:04:05;;;;;;;18.83;5.10;;;16.90;99.90;;;;;;4975714;28;20054;-77
2022/10/02 11:07:01;;;;;;;14.93;4.73;;;16.90;99.90;;;;;;4982237;28;20038;-77
2022/10/02 11:09:41;;;;;;;14.52;4.85;;;16.90;99.90;;;;;;4976064;28;20678;-77
2022/10/02 11:12:40;;;;;;;13.40;4.32;;;17.00;99.90;;;;;;4977834;28;20049;-77
2022/10/02 11:15:23;;;;;;;10.50;4.07;;;17.00;99.90;;;;;;4982666;28;20595;-77
2022/10/02 11:18:00;;;;;;;11.32;4.65;;;17.00;99.90;;;;;;4971218;28;20039;-77
2022/10/02 11:20:55;;;;;;;18.92;5.03;;;17.00;99.90;;;;;;4969666;28;20051;-77
2022/10/02 11:24:04;;;;;;;11.70;4.32;;;17.00;99.90;;;;;;4983746;28;20057;-77
2022/10/02 11:26:44;;;;;;;11.38;4.03;;;17.00;99.90;;;;;;4966200;28;20051;-77
2022/10/02 11:29:38;;;;;;;13.82;4.82;;;17.00;99.90;;;;;;4984794;28;20057;-77
2022/10/02 11:32:41;;;;;;;17.42;4.68;;;17.00;99.90;;;;;;4988029;28;20092;-77
2022/10/02 11:35:43;;;;;;;11.35;3.72;;;17.00;99.90;;;;;;4988142;28;20074;-77
2022/10/02 11:38:51;;;;;;;11.05;3.78;;;17.00;99.90;;;;;;4998268;28;20050;-77
2022/10/02 11:41:45;;;;;;;10.50;3.85;;;17.00;99.90;;;;;;4983689;28;20054;-77
2022/10/02 11:44:19;;;;;;;14.02;4.78;;;17.00;99.90;;;;;;4988781;28;20637;-77
2022/10/02 11:47:21;;;;;;;13.95;4.53;;;17.00;99.90;;;;;;4985418;28;20050;-77
2022/10/02 11:49:59;;;;;;;;;;;17.00;99.90;;;;;;4978978;28;20049;-77
2022/10/02 11:52:57;;;;;;;14.43;3.80;;;17.00;99.90;;;;;;4985117;28;19926;-77
2022/10/02 11:55:53;;;;;;;17.35;4.20;;;17.10;99.90;;;;;;4994213;28;20068;-77
2022/10/02 11:58:36;;;;;;;11.60;3.60;;;17.00;99.90;;;;;;4986821;28;20519;-78
2022/10/02 12:01:17;;;;;;;13.68;3.50;;;17.00;99.90;;;;;;4989635;28;20050;-77
2022/10/02 12:04:04;;;;;;;13.90;4.03;;;17.10;99.90;;;;;;4987002;28;20097;-77
2022/10/02 12:07:09;;;;;;;9.57;3.35;;;17.10;99.90;;;;;;4987740;28;20046;-77
2022/10/02 12:09:43;;;;;;;16.25;3.95;;;17.10;99.90;;;;;;5009092;28;20062;-77
2022/10/02 12:12:32;;;;;;;15.13;4.22;;;17.10;99.90;;;;;;5009275;28;20038;-77
2022/10/02 12:15:03;;;;;;;13.27;3.42;;;17.10;99.90;;;;;;4989860;28;20054;-77
2022/10/02 12:18:22;;;;;;;16.75;3.63;;;17.10;99.90;;;;;;4989659;28;20038;-77
2022/10/02 12:31:18;;;;;;;15.20;3.28;;;17.20;99.90;;;;;;4906601;29;20050;-77
2022/10/02 12:34:33;;;;;;;13.07;3.45;;;17.20;99.90;;;;;;4829427;28;20191;-77
2022/10/02 12:37:23;;;;;;;9.32;3.22;;;17.20;99.90;;;;;;4977813;28;20503;-78
2022/10/02 12:39:58;;;;;;;13.45;3.35;;;17.20;99.90;;;;;;4973523;28;20436;-76
2022/10/02 12:46:34;;;;;;;12.15;3.53;;;17.20;99.90;;;;;;4980661;28;20123;-76
2022/10/02 12:49:12;;;;;;;13.45;3.40;;;17.20;99.90;;;;;;4981619;28;20046;-76
2022/10/02 12:51:47;;;;;;;15.85;3.22;;;17.10;99.90;;;;;;4985773;28;20049;-76
2022/10/02 12:54:52;;;;;;;19.20;4.13;;;17.20;99.90;;;;;;4991466;28;20226;-76
2022/10/02 12:57:55;;;;;;;13.00;3.60;;;17.10;99.90;;;;;;4986304;28;20050;-76
2022/10/02 13:00:24;;;;;;;13.48;3.60;;;17.10;99.90;;;;;;4984352;28;20109;-76
2022/10/02 13:03:18;;;;;;;15.15;3.50;;;17.10;99.90;;;;;;4983584;28;20054;-76
2022/10/02 13:06:30;;;;;;;16.30;4.05;;;17.10;99.90;;;;;;4984768;28;20463;-75
2022/10/02 13:09:10;;;;;;;12.77;3.30;;;17.10;99.90;;;;;;4963180;28;20253;-78
2022/10/02 13:11:48;;;;;;;11.27;3.13;;;17.20;99.90;;;;;;4983367;28;20043;-77
2022/10/02 13:14:27;;;;;;;12.68;3.40;;;17.20;99.90;;;;;;4982534;28;20530;-77
2022/10/02 13:17:14;;;;;;;13.52;2.65;;;17.20;99.90;;;;;;4978159;28;20681;-77
2022/10/02 13:19:49;;;;;;;13.98;4.13;;;17.10;99.90;;;;;;4980221;28;20042;-77
2022/10/02 13:22:19;;;;;;;11.88;3.05;;;17.10;99.90;;;;;;4983907;28;20100;-77
2022/10/02 13:24:55;;;;;;;15.52;3.92;;;17.10;99.90;;;;;;4979729;28;20042;-77
2022/10/02 13:27:33;;;;;;;13.30;3.78;;;17.20;99.90;;;;;;4984718;28;20038;-77
2022/10/02 13:30:06;;;;;;;11.50;3.53;;;17.10;99.90;;;;;;4982750;28;20055;-75
2022/10/02 13:32:48;;;;;;;11.40;3.88;;;17.10;99.90;;;;;;4978519;28;20066;-77
2022/10/02 13:35:35;;;;;;;14.50;4.18;;;17.10;99.90;;;;;;4982704;28;20137;-77
2022/10/02 13:38:13;;;;;;;13.75;4.25;;;17.10;99.90;;;;;;4978160;28;20499;-77
2022/10/02 13:40:48;;;;;;;15.15;4.07;;;17.10;99.90;;;;;;4986154;28;20046;-77
2022/10/02 13:43:44;;;;;;;16.20;4.07;;;17.10;99.90;;;;;;4947975;28;1097438;-77
2022/10/02 13:46:21;;;;;;;16.90;4.80;;;17.00;99.90;;;;;;4962961;28;20062;-77
2022/10/02 13:48:58;;;;;;;12.88;3.92;;;17.00;99.90;;;;;;4990920;28;20038;-77
2022/10/02 13:51:31;;;;;;;12.77;3.45;;;17.00;99.90;;;;;;4976596;28;20459;-78
2022/10/02 13:54:19;;;;;;;13.48;4.22;;;17.00;99.90;;;;;;4988321;28;20190;-78
2022/10/02 13:56:51;;;;;;;14.63;4.25;;;17.10;99.90;;;;;;4977605;28;20054;-76
2022/10/02 13:59:40;;;;;;;15.30;4.65;;;17.10;99.90;;;;;;4991074;28;20054;-76
2022/10/02 14:02:20;;;;;;;14.40;4.53;;;17.10;99.90;;;;;;4981591;28;20431;-76
2022/10/02 14:04:55;;;;;;;18.30;3.92;;;17.10;99.90;;;;;;4986329;28;20046;-75
2022/10/02 14:07:44;;;;;;;10.98;3.92;;;17.10;99.90;;;;;;4978356;28;20446;-77